Terminal Aerodrome Forecast
Issued by NWS Birmingham, AL

Home | Current Version | Previous Version | Text Only | Print | Product List | Glossary On
Versions: 1 2 3 4 5 6 7 8 9 10 11 12 13 14 15 16 17 18 19
000
FTUS44 KBMX 042300
TAFBHM
TAF
KBHM 042323Z 0500/0524 22009KT P6SM VCSH SCT020 BKN040
     FM050400 34009KT 4SM RA BR OVC015
     FM051800 34010KT 4SM -RA OVC007 PROB30 0518/0520 4SM -FZRA
      OVC007
     FM052000 35012KT P6SM OVC015=

USA.gov is the U.S. government's official web portal to all federal, state and local government web resources and services.